sensor_id;sensor_type;location;lat;lon;timestamp;P1;durP1;ratioP1;P2;durP2;ratioP2
40967;SDS011;57377;45.130;6.038;2023-03-23T00:00:45;6.10;;;2.60;;
40967;SDS011;57377;45.130;6.038;2023-03-23T00:03:10;4.00;;;1.67;;
40967;SDS011;57377;45.130;6.038;2023-03-23T00:05:35;2.97;;;1.55;;
40967;SDS011;57377;45.130;6.038;2023-03-23T00:10:28;15.05;;;6.78;;
40967;SDS011;57377;45.130;6.038;2023-03-23T00:12:58;8.45;;;4.10;;
40967;SDS011;57377;45.130;6.038;2023-03-23T00:15:27;5.32;;;3.40;;
40967;SDS011;57377;45.130;6.038;2023-03-23T00:17:58;9.75;;;4.45;;
40967;SDS011;57377;45.130;6.038;2023-03-23T00:20:30;7.35;;;2.60;;
40967;SDS011;57377;45.130;6.038;2023-03-23T00:23:04;3.53;;;2.35;;
40967;SDS011;57377;45.130;6.038;2023-03-23T00:25:30;6.00;;;1.75;;
40967;SDS011;57377;45.130;6.038;2023-03-23T00:27:55;4.80;;;1.55;;
40967;SDS011;57377;45.130;6.038;2023-03-23T00:30:21;10.63;;;1.85;;
40967;SDS011;57377;45.130;6.038;2023-03-23T00:32:47;7.88;;;2.22;;
40967;SDS011;57377;45.130;6.038;2023-03-23T00:35:13;10.50;;;2.65;;
40967;SDS011;57377;45.130;6.038;2023-03-23T00:37:39;4.82;;;2.10;;
40967;SDS011;57377;45.130;6.038;2023-03-23T00:40:05;4.00;;;1.58;;
40967;SDS011;57377;45.130;6.038;2023-03-23T00:42:34;6.00;;;1.45;;
40967;SDS011;57377;45.130;6.038;2023-03-23T00:45:02;6.88;;;2.83;;
40967;SDS011;57377;45.130;6.038;2023-03-23T00:47:35;8.63;;;3.45;;
40967;SDS011;57377;45.130;6.038;2023-03-23T00:50:01;7.35;;;3.45;;
40967;SDS011;57377;45.130;6.038;2023-03-23T00:52:27;5.18;;;2.80;;
40967;SDS011;57377;45.130;6.038;2023-03-23T00:54:53;28.83;;;14.57;;
40967;SDS011;57377;45.130;6.038;2023-03-23T00:57:18;36.45;;;13.43;;
40967;SDS011;57377;45.130;6.038;2023-03-23T00:59:44;73.70;;;31.75;;
40967;SDS011;57377;45.130;6.038;2023-03-23T01:02:10;129.13;;;63.50;;
40967;SDS011;57377;45.130;6.038;2023-03-23T01:04:37;62.80;;;31.88;;
40967;SDS011;57377;45.130;6.038;2023-03-23T01:07:03;26.80;;;14.68;;
40967;SDS011;57377;45.130;6.038;2023-03-23T01:09:29;9.93;;;4.60;;
40967;SDS011;57377;45.130;6.038;2023-03-23T01:11:55;11.43;;;3.20;;
40967;SDS011;57377;45.130;6.038;2023-03-23T01:14:21;13.23;;;6.88;;
40967;SDS011;57377;45.130;6.038;2023-03-23T01:16:46;9.65;;;3.50;;
40967;SDS011;57377;45.130;6.038;2023-03-23T01:19:12;4.55;;;2.72;;
40967;SDS011;57377;45.130;6.038;2023-03-23T01:21:38;3.28;;;2.00;;
40967;SDS011;57377;45.130;6.038;2023-03-23T01:24:04;6.60;;;2.83;;
40967;SDS011;57377;45.130;6.038;2023-03-23T01:26:31;6.22;;;2.63;;
40967;SDS011;57377;45.130;6.038;2023-03-23T01:28:56;4.40;;;1.25;;
40967;SDS011;57377;45.130;6.038;2023-03-23T01:31:23;17.70;;;7.93;;
40967;SDS011;57377;45.130;6.038;2023-03-23T01:33:50;57.35;;;26.85;;
40967;SDS011;57377;45.130;6.038;2023-03-23T01:36:21;20.73;;;5.85;;
40967;SDS011;57377;45.130;6.038;2023-03-23T01:38:49;28.45;;;10.68;;
40967;SDS011;57377;45.130;6.038;2023-03-23T01:41:15;32.67;;;15.50;;
40967;SDS011;57377;45.130;6.038;2023-03-23T01:46:20;7.05;;;2.72;;
40967;SDS011;57377;45.130;6.038;2023-03-23T01:48:47;17.38;;;4.93;;
40967;SDS011;57377;45.130;6.038;2023-03-23T01:51:15;8.05;;;4.43;;
40967;SDS011;57377;45.130;6.038;2023-03-23T01:53:57;13.18;;;6.35;;
40967;SDS011;57377;45.130;6.038;2023-03-23T01:56:31;15.95;;;7.40;;
40967;SDS011;57377;45.130;6.038;2023-03-23T01:59:03;9.13;;;4.55;;
40967;SDS011;57377;45.130;6.038;2023-03-23T02:01:28;21.73;;;5.93;;
40967;SDS011;57377;45.130;6.038;2023-03-23T02:03:55;10.88;;;6.15;;
40967;SDS011;57377;45.130;6.038;2023-03-23T02:06:22;22.58;;;12.25;;
40967;SDS011;57377;45.130;6.038;2023-03-23T02:08:48;11.25;;;6.57;;
40967;SDS011;57377;45.130;6.038;2023-03-23T02:13:42;10.50;;;3.55;;
40967;SDS011;57377;45.130;6.038;2023-03-23T02:18:57;16.67;;;5.60;;
40967;SDS011;57377;45.130;6.038;2023-03-23T02:26:59;6.90;;;3.05;;
40967;SDS011;57377;45.130;6.038;2023-03-23T02:29:36;8.95;;;5.20;;
40967;SDS011;57377;45.130;6.038;2023-03-23T02:35:06;6.47;;;3.75;;
40967;SDS011;57377;45.130;6.038;2023-03-23T02:38:09;6.65;;;3.53;;
40967;SDS011;57377;45.130;6.038;2023-03-23T02:40:35;5.22;;;2.30;;
40967;SDS011;57377;45.130;6.038;2023-03-23T02:43:09;9.13;;;1.85;;
40967;SDS011;57377;45.130;6.038;2023-03-23T02:45:37;4.07;;;1.30;;
40967;SDS011;57377;45.130;6.038;2023-03-23T02:48:05;9.45;;;1.58;;
40967;SDS011;57377;45.130;6.038;2023-03-23T02:50:31;3.40;;;1.70;;
40967;SDS011;57377;45.130;6.038;2023-03-23T02:52:58;4.05;;;1.52;;
40967;SDS011;57377;45.130;6.038;2023-03-23T02:57:53;6.72;;;1.60;;
40967;SDS011;57377;45.130;6.038;2023-03-23T03:00:20;3.38;;;1.70;;
40967;SDS011;57377;45.130;6.038;2023-03-23T03:02:46;5.10;;;1.63;;
40967;SDS011;57377;45.130;6.038;2023-03-23T03:05:23;7.72;;;1.88;;
40967;SDS011;57377;45.130;6.038;2023-03-23T03:08:19;3.38;;;1.50;;
40967;SDS011;57377;45.130;6.038;2023-03-23T03:10:58;9.07;;;1.88;;
40967;SDS011;57377;45.130;6.038;2023-03-23T03:16:07;3.92;;;1.67;;
40967;SDS011;57377;45.130;6.038;2023-03-23T03:18:54;7.20;;;1.98;;
40967;SDS011;57377;45.130;6.038;2023-03-23T03:21:25;6.78;;;1.90;;
40967;SDS011;57377;45.130;6.038;2023-03-23T03:23:54;4.57;;;1.98;;
40967;SDS011;57377;45.130;6.038;2023-03-23T03:26:24;5.00;;;1.60;;
40967;SDS011;57377;45.130;6.038;2023-03-23T03:28:52;5.63;;;1.70;;
40967;SDS011;57377;45.130;6.038;2023-03-23T03:31:19;2.25;;;1.52;;
40967;SDS011;57377;45.130;6.038;2023-03-23T03:33:48;4.05;;;1.70;;
40967;SDS011;57377;45.130;6.038;2023-03-23T03:36:16;6.40;;;1.48;;
40967;SDS011;57377;45.130;6.038;2023-03-23T03:38:45;3.38;;;1.40;;
40967;SDS011;57377;45.130;6.038;2023-03-23T03:41:13;4.10;;;1.42;;
40967;SDS011;57377;45.130;6.038;2023-03-23T03:43:39;8.23;;;1.70;;
40967;SDS011;57377;45.130;6.038;2023-03-23T03:46:05;3.58;;;1.67;;
40967;SDS011;57377;45.130;6.038;2023-03-23T03:48:30;3.67;;;1.30;;
40967;SDS011;57377;45.130;6.038;2023-03-23T03:50:56;5.57;;;1.23;;
40967;SDS011;57377;45.130;6.038;2023-03-23T03:53:24;7.32;;;1.80;;
40967;SDS011;57377;45.130;6.038;2023-03-23T03:55:50;6.05;;;1.42;;
40967;SDS011;57377;45.130;6.038;2023-03-23T03:58:20;6.43;;;2.25;;
40967;SDS011;57377;45.130;6.038;2023-03-23T04:00:48;6.65;;;1.67;;
40967;SDS011;57377;45.130;6.038;2023-03-23T04:03:14;11.32;;;3.67;;
40967;SDS011;57377;45.130;6.038;2023-03-23T04:05:41;4.43;;;1.80;;
40967;SDS011;57377;45.130;6.038;2023-03-23T04:08:07;6.45;;;1.88;;
40967;SDS011;57377;45.130;6.038;2023-03-23T04:10:32;4.45;;;2.05;;
40967;SDS011;57377;45.130;6.038;2023-03-23T04:12:58;3.10;;;1.35;;
40967;SDS011;57377;45.130;6.038;2023-03-23T04:15:24;4.80;;;1.58;;
40967;SDS011;57377;45.130;6.038;2023-03-23T04:17:49;5.78;;;1.17;;
40967;SDS011;57377;45.130;6.038;2023-03-23T04:20:15;7.72;;;1.73;;
40967;SDS011;57377;45.130;6.038;2023-03-23T04:22:44;2.10;;;1.55;;
40967;SDS011;57377;45.130;6.038;2023-03-23T04:25:10;7.15;;;2.25;;
40967;SDS011;57377;45.130;6.038;2023-03-23T04:27:38;5.28;;;1.83;;
40967;SDS011;57377;45.130;6.038;2023-03-23T04:30:04;4.55;;;1.40;;
40967;SDS011;57377;45.130;6.038;2023-03-23T04:32:31;6.35;;;1.42;;
40967;SDS011;57377;45.130;6.038;2023-03-23T04:34:59;7.32;;;1.13;;
40967;SDS011;57377;45.130;6.038;2023-03-23T04:37:25;4.18;;;1.45;;
40967;SDS011;57377;45.130;6.038;2023-03-23T04:39:53;7.22;;;0.90;;
40967;SDS011;57377;45.130;6.038;2023-03-23T04:42:29;8.30;;;1.90;;
40967;SDS011;57377;45.130;6.038;2023-03-23T04:44:59;4.70;;;1.30;;
40967;SDS011;57377;45.130;6.038;2023-03-23T04:47:25;2.35;;;1.17;;
40967;SDS011;57377;45.130;6.038;2023-03-23T04:49:55;5.13;;;1.50;;
40967;SDS011;57377;45.130;6.038;2023-03-23T04:52:22;7.65;;;1.50;;
40967;SDS011;57377;45.130;6.038;2023-03-23T04:54:49;4.03;;;1.55;;
40967;SDS011;57377;45.130;6.038;2023-03-23T04:57:15;6.35;;;1.98;;
40967;SDS011;57377;45.130;6.038;2023-03-23T04:59:44;4.97;;;1.52;;
40967;SDS011;57377;45.130;6.038;2023-03-23T05:02:10;5.75;;;1.70;;
40967;SDS011;57377;45.130;6.038;2023-03-23T05:04:36;5.18;;;1.33;;
40967;SDS011;57377;45.130;6.038;2023-03-23T05:07:02;4.45;;;1.55;;
40967;SDS011;57377;45.130;6.038;2023-03-23T05:09:28;9.25;;;3.25;;
40967;SDS011;57377;45.130;6.038;2023-03-23T05:11:54;24.42;;;9.45;;
40967;SDS011;57377;45.130;6.038;2023-03-23T05:14:19;16.23;;;7.63;;
40967;SDS011;57377;45.130;6.038;2023-03-23T05:16:46;9.10;;;4.57;;
40967;SDS011;57377;45.130;6.038;2023-03-23T05:19:13;5.03;;;2.35;;
40967;SDS011;57377;45.130;6.038;2023-03-23T05:21:39;4.55;;;2.10;;
40967;SDS011;57377;45.130;6.038;2023-03-23T05:24:05;3.13;;;1.65;;
40967;SDS011;57377;45.130;6.038;2023-03-23T05:26:31;4.60;;;1.10;;
40967;SDS011;57377;45.130;6.038;2023-03-23T05:28:57;5.68;;;1.90;;
40967;SDS011;57377;45.130;6.038;2023-03-23T05:31:26;6.38;;;1.30;;
40967;SDS011;57377;45.130;6.038;2023-03-23T05:33:52;5.25;;;0.95;;
40967;SDS011;57377;45.130;6.038;2023-03-23T05:36:17;2.97;;;1.65;;
40967;SDS011;57377;45.130;6.038;2023-03-23T05:38:45;2.47;;;1.17;;
40967;SDS011;57377;45.130;6.038;2023-03-23T05:41:13;2.97;;;1.23;;
40967;SDS011;57377;45.130;6.038;2023-03-23T05:43:40;5.75;;;1.75;;
40967;SDS011;57377;45.130;6.038;2023-03-23T05:46:06;8.68;;;1.45;;
40967;SDS011;57377;45.130;6.038;2023-03-23T05:48:32;7.50;;;1.87;;
40967;SDS011;57377;45.130;6.038;2023-03-23T05:50:59;12.60;;;1.92;;
40967;SDS011;57377;45.130;6.038;2023-03-23T05:53:25;3.55;;;1.38;;
40967;SDS011;57377;45.130;6.038;2023-03-23T05:55:50;5.22;;;1.20;;
40967;SDS011;57377;45.130;6.038;2023-03-23T05:58:16;5.68;;;1.35;;
40967;SDS011;57377;45.130;6.038;2023-03-23T06:00:42;4.03;;;1.30;;
40967;SDS011;57377;45.130;6.038;2023-03-23T06:03:07;7.40;;;1.20;;
40967;SDS011;57377;45.130;6.038;2023-03-23T06:05:33;2.85;;;1.30;;
40967;SDS011;57377;45.130;6.038;2023-03-23T06:07:58;3.17;;;2.08;;
40967;SDS011;57377;45.130;6.038;2023-03-23T06:10:24;3.58;;;1.40;;
40967;SDS011;57377;45.130;6.038;2023-03-23T06:15:17;2.05;;;1.20;;
40967;SDS011;57377;45.130;6.038;2023-03-23T06:17:43;5.45;;;1.50;;
40967;SDS011;57377;45.130;6.038;2023-03-23T06:20:08;3.35;;;1.10;;
40967;SDS011;57377;45.130;6.038;2023-03-23T06:22:38;4.93;;;2.40;;
40967;SDS011;57377;45.130;6.038;2023-03-23T06:25:07;4.78;;;1.50;;
40967;SDS011;57377;45.130;6.038;2023-03-23T06:27:34;5.93;;;1.50;;
40967;SDS011;57377;45.130;6.038;2023-03-23T06:30:00;4.95;;;2.05;;
40967;SDS011;57377;45.130;6.038;2023-03-23T06:32:27;5.87;;;1.60;;
40967;SDS011;57377;45.130;6.038;2023-03-23T06:34:54;5.53;;;1.83;;
40967;SDS011;57377;45.130;6.038;2023-03-23T06:37:20;6.03;;;1.50;;
40967;SDS011;57377;45.130;6.038;2023-03-23T06:39:45;5.07;;;1.20;;
40967;SDS011;57377;45.130;6.038;2023-03-23T06:42:11;8.50;;;1.45;;
40967;SDS011;57377;45.130;6.038;2023-03-23T06:44:37;4.38;;;1.60;;
40967;SDS011;57377;45.130;6.038;2023-03-23T06:47:03;8.23;;;1.77;;
40967;SDS011;57377;45.130;6.038;2023-03-23T06:49:29;2.05;;;1.20;;
40967;SDS011;57377;45.130;6.038;2023-03-23T06:51:54;4.65;;;1.45;;
40967;SDS011;57377;45.130;6.038;2023-03-23T06:54:25;4.50;;;1.30;;
40967;SDS011;57377;45.130;6.038;2023-03-23T06:56:51;2.22;;;1.30;;
40967;SDS011;57377;45.130;6.038;2023-03-23T06:59:16;7.00;;;1.58;;
40967;SDS011;57377;45.130;6.038;2023-03-23T07:01:42;5.45;;;1.75;;
40967;SDS011;57377;45.130;6.038;2023-03-23T07:04:07;3.05;;;1.50;;
40967;SDS011;57377;45.130;6.038;2023-03-23T07:06:32;5.15;;;1.48;;
40967;SDS011;57377;45.130;6.038;2023-03-23T07:08:58;5.13;;;1.60;;
40967;SDS011;57377;45.130;6.038;2023-03-23T07:11:23;3.17;;;1.50;;
40967;SDS011;57377;45.130;6.038;2023-03-23T07:13:50;5.90;;;1.60;;
40967;SDS011;57377;45.130;6.038;2023-03-23T07:16:15;6.45;;;1.50;;
40967;SDS011;57377;45.130;6.038;2023-03-23T07:18:42;7.07;;;2.22;;
40967;SDS011;57377;45.130;6.038;2023-03-23T07:21:08;4.72;;;1.80;;
40967;SDS011;57377;45.130;6.038;2023-03-23T07:23:33;2.75;;;1.42;;
40967;SDS011;57377;45.130;6.038;2023-03-23T07:25:59;5.57;;;1.70;;
40967;SDS011;57377;45.130;6.038;2023-03-23T07:28:24;4.95;;;1.77;;
40967;SDS011;57377;45.130;6.038;2023-03-23T07:30:50;6.50;;;2.30;;
40967;SDS011;57377;45.130;6.038;2023-03-23T07:33:16;5.88;;;1.50;;
40967;SDS011;57377;45.130;6.038;2023-03-23T07:35:42;5.13;;;1.50;;
40967;SDS011;57377;45.130;6.038;2023-03-23T07:38:07;3.15;;;1.35;;
40967;SDS011;57377;45.130;6.038;2023-03-23T07:40:34;3.05;;;1.33;;
40967;SDS011;57377;45.130;6.038;2023-03-23T07:43:00;6.47;;;1.50;;
40967;SDS011;57377;45.130;6.038;2023-03-23T07:45:28;3.05;;;1.30;;
40967;SDS011;57377;45.130;6.038;2023-03-23T07:47:54;6.22;;;1.50;;
40967;SDS011;57377;45.130;6.038;2023-03-23T07:50:20;2.28;;;1.30;;
40967;SDS011;57377;45.130;6.038;2023-03-23T07:52:50;1.42;;;1.10;;
40967;SDS011;57377;45.130;6.038;2023-03-23T07:55:23;3.90;;;1.30;;
40967;SDS011;57377;45.130;6.038;2023-03-23T07:57:49;4.88;;;2.38;;
40967;SDS011;57377;45.130;6.038;2023-03-23T08:00:16;3.17;;;1.65;;
40967;SDS011;57377;45.130;6.038;2023-03-23T08:02:52;4.40;;;1.65;;
40967;SDS011;57377;45.130;6.038;2023-03-23T08:05:20;2.90;;;1.65;;
40967;SDS011;57377;45.130;6.038;2023-03-23T08:07:47;3.13;;;1.60;;
40967;SDS011;57377;45.130;6.038;2023-03-23T08:10:13;11.18;;;1.50;;
40967;SDS011;57377;45.130;6.038;2023-03-23T08:12:40;6.30;;;1.37;;
40967;SDS011;57377;45.130;6.038;2023-03-23T08:15:08;2.80;;;1.17;;
40967;SDS011;57377;45.130;6.038;2023-03-23T08:17:38;5.80;;;1.83;;
40967;SDS011;57377;45.130;6.038;2023-03-23T08:20:05;5.57;;;1.25;;
40967;SDS011;57377;45.130;6.038;2023-03-23T08:22:37;3.15;;;1.10;;
40967;SDS011;57377;45.130;6.038;2023-03-23T08:25:08;4.47;;;0.77;;
40967;SDS011;57377;45.130;6.038;2023-03-23T08:27:35;3.13;;;1.42;;
40967;SDS011;57377;45.130;6.038;2023-03-23T08:30:00;6.07;;;1.70;;
40967;SDS011;57377;45.130;6.038;2023-03-23T08:32:26;6.78;;;1.90;;
40967;SDS011;57377;45.130;6.038;2023-03-23T08:34:52;3.53;;;1.63;;
40967;SDS011;57377;45.130;6.038;2023-03-23T08:37:18;2.75;;;1.50;;
40967;SDS011;57377;45.130;6.038;2023-03-23T08:39:43;3.78;;;1.33;;
40967;SDS011;57377;45.130;6.038;2023-03-23T08:42:09;2.22;;;1.10;;
40967;SDS011;57377;45.130;6.038;2023-03-23T08:44:35;2.97;;;1.23;;
40967;SDS011;57377;45.130;6.038;2023-03-23T08:47:01;2.30;;;1.20;;
40967;SDS011;57377;45.130;6.038;2023-03-23T08:49:29;2.28;;;1.23;;
40967;SDS011;57377;45.130;6.038;2023-03-23T08:51:57;2.90;;;1.35;;
40967;SDS011;57377;45.130;6.038;2023-03-23T08:54:23;4.28;;;1.25;;
40967;SDS011;57377;45.130;6.038;2023-03-23T08:56:49;1.92;;;1.20;;
40967;SDS011;57377;45.130;6.038;2023-03-23T08:59:14;3.35;;;1.40;;
40967;SDS011;57377;45.130;6.038;2023-03-23T09:01:39;4.50;;;1.35;;
40967;SDS011;57377;45.130;6.038;2023-03-23T09:04:06;1.45;;;1.15;;
40967;SDS011;57377;45.130;6.038;2023-03-23T09:06:34;5.25;;;1.55;;
40967;SDS011;57377;45.130;6.038;2023-03-23T09:09:00;3.03;;;1.42;;
40967;SDS011;57377;45.130;6.038;2023-03-23T09:11:27;3.83;;;1.50;;
40967;SDS011;57377;45.130;6.038;2023-03-23T09:13:52;14.30;;;5.32;;
40967;SDS011;57377;45.130;6.038;2023-03-23T09:16:18;3.63;;;1.63;;
40967;SDS011;57377;45.130;6.038;2023-03-23T09:18:43;1.42;;;0.88;;
40967;SDS011;57377;45.130;6.038;2023-03-23T09:21:09;1.95;;;0.88;;
40967;SDS011;57377;45.130;6.038;2023-03-23T09:23:34;4.55;;;1.00;;
40967;SDS011;57377;45.130;6.038;2023-03-23T09:26:00;5.60;;;1.40;;
40967;SDS011;57377;45.130;6.038;2023-03-23T09:28:26;5.05;;;1.13;;
40967;SDS011;57377;45.130;6.038;2023-03-23T09:30:54;1.88;;;0.88;;
40967;SDS011;57377;45.130;6.038;2023-03-23T09:33:21;4.78;;;1.23;;
40967;SDS011;57377;45.130;6.038;2023-03-23T09:35:46;2.22;;;0.98;;
40967;SDS011;57377;45.130;6.038;2023-03-23T09:38:12;4.15;;;1.05;;
40967;SDS011;57377;45.130;6.038;2023-03-23T09:48:56;1.48;;;0.85;;
40967;SDS011;57377;45.130;6.038;2023-03-23T09:51:44;1.83;;;0.90;;
40967;SDS011;57377;45.130;6.038;2023-03-23T09:56:54;4.80;;;1.20;;
40967;SDS011;57377;45.130;6.038;2023-03-23T09:59:25;1.88;;;1.08;;
40967;SDS011;57377;45.130;6.038;2023-03-23T10:01:53;2.45;;;1.27;;
40967;SDS011;57377;45.130;6.038;2023-03-23T10:07:15;2.58;;;1.45;;
40967;SDS011;57377;45.130;6.038;2023-03-23T10:09:43;2.30;;;1.20;;
40967;SDS011;57377;45.130;6.038;2023-03-23T10:12:16;1.95;;;1.20;;
40967;SDS011;57377;45.130;6.038;2023-03-23T10:19:56;6.18;;;1.10;;
40967;SDS011;57377;45.130;6.038;2023-03-23T10:22:31;1.63;;;0.93;;
40967;SDS011;57377;45.130;6.038;2023-03-23T10:25:14;3.28;;;1.20;;
40967;SDS011;57377;45.130;6.038;2023-03-23T10:38:27;3.17;;;1.20;;
40967;SDS011;57377;45.130;6.038;2023-03-23T10:41:05;2.33;;;1.10;;
40967;SDS011;57377;45.130;6.038;2023-03-23T10:43:36;3.28;;;1.20;;
40967;SDS011;57377;45.130;6.038;2023-03-23T10:46:04;1.58;;;0.80;;
40967;SDS011;57377;45.130;6.038;2023-03-23T10:48:37;2.55;;;0.90;;
40967;SDS011;57377;45.130;6.038;2023-03-23T10:51:04;1.33;;;0.93;;
40967;SDS011;57377;45.130;6.038;2023-03-23T10:53:35;1.90;;;1.23;;
40967;SDS011;57377;45.130;6.038;2023-03-23T10:56:02;3.28;;;1.27;;
40967;SDS011;57377;45.130;6.038;2023-03-23T10:58:33;3.33;;;1.10;;
40967;SDS011;57377;45.130;6.038;2023-03-23T11:01:01;1.35;;;0.65;;
40967;SDS011;57377;45.130;6.038;2023-03-23T11:03:44;1.75;;;1.33;;
40967;SDS011;57377;45.130;6.038;2023-03-23T11:09:14;3.03;;;0.90;;
40967;SDS011;57377;45.130;6.038;2023-03-23T11:11:43;2.33;;;0.93;;
40967;SDS011;57377;45.130;6.038;2023-03-23T11:14:18;3.28;;;0.85;;
40967;SDS011;57377;45.130;6.038;2023-03-23T11:16:53;0.82;;;0.70;;
40967;SDS011;57377;45.130;6.038;2023-03-23T11:19:28;2.78;;;0.90;;
40967;SDS011;57377;45.130;6.038;2023-03-23T11:22:06;1.73;;;1.10;;
40967;SDS011;57377;45.130;6.038;2023-03-23T11:24:33;3.85;;;1.55;;
40967;SDS011;57377;45.130;6.038;2023-03-23T11:27:01;1.38;;;0.98;;
40967;SDS011;57377;45.130;6.038;2023-03-23T11:29:32;1.70;;;1.08;;
40967;SDS011;57377;45.130;6.038;2023-03-23T11:34:32;3.75;;;1.40;;
40967;SDS011;57377;45.130;6.038;2023-03-23T11:37:05;2.63;;;1.13;;
40967;SDS011;57377;45.130;6.038;2023-03-23T11:39:35;3.53;;;1.15;;
40967;SDS011;57377;45.130;6.038;2023-03-23T11:42:17;7.07;;;1.10;;
40967;SDS011;57377;45.130;6.038;2023-03-23T11:44:45;1.83;;;1.10;;
40967;SDS011;57377;45.130;6.038;2023-03-23T11:47:23;4.80;;;0.98;;
40967;SDS011;57377;45.130;6.038;2023-03-23T11:49:57;1.48;;;1.02;;
40967;SDS011;57377;45.130;6.038;2023-03-23T11:52:33;7.00;;;1.10;;
40967;SDS011;57377;45.130;6.038;2023-03-23T11:55:10;3.42;;;1.00;;
40967;SDS011;57377;45.130;6.038;2023-03-23T11:57:40;4.05;;;1.10;;
40967;SDS011;57377;45.130;6.038;2023-03-23T12:00:14;4.57;;;1.20;;
40967;SDS011;57377;45.130;6.038;2023-03-23T12:19:31;3.97;;;1.33;;
40967;SDS011;57377;45.130;6.038;2023-03-23T12:22:09;3.63;;;1.30;;
40967;SDS011;57377;45.130;6.038;2023-03-23T12:27:52;2.25;;;1.20;;
40967;SDS011;57377;45.130;6.038;2023-03-23T12:30:35;3.67;;;0.82;;
40967;SDS011;57377;45.130;6.038;2023-03-23T12:38:17;5.20;;;1.38;;
40967;SDS011;57377;45.130;6.038;2023-03-23T12:43:49;1.95;;;1.05;;
40967;SDS011;57377;45.130;6.038;2023-03-23T12:49:03;6.10;;;1.85;;
40967;SDS011;57377;45.130;6.038;2023-03-23T12:52:20;7.10;;;1.52;;
40967;SDS011;57377;45.130;6.038;2023-03-23T12:57:04;9.20;;;1.40;;
40967;SDS011;57377;45.130;6.038;2023-03-23T13:02:23;7.38;;;1.65;;
40967;SDS011;57377;45.130;6.038;2023-03-23T13:05:10;3.17;;;1.48;;
40967;SDS011;57377;45.130;6.038;2023-03-23T13:07:42;7.03;;;1.20;;
40967;SDS011;57377;45.130;6.038;2023-03-23T13:10:18;2.30;;;1.63;;
40967;SDS011;57377;45.130;6.038;2023-03-23T13:12:47;8.23;;;1.38;;
40967;SDS011;57377;45.130;6.038;2023-03-23T13:15:17;6.03;;;1.20;;
40967;SDS011;57377;45.130;6.038;2023-03-23T13:25:51;1.65;;;1.30;;
40967;SDS011;57377;45.130;6.038;2023-03-23T13:33:52;5.22;;;1.52;;
40967;SDS011;57377;45.130;6.038;2023-03-23T13:37:04;2.63;;;1.23;;
40967;SDS011;57377;45.130;6.038;2023-03-23T13:39:34;4.38;;;1.40;;
40967;SDS011;57377;45.130;6.038;2023-03-23T13:44:41;1.70;;;1.17;;
40967;SDS011;57377;45.130;6.038;2023-03-23T13:50:05;6.05;;;1.63;;
40967;SDS011;57377;45.130;6.038;2023-03-23T13:57:51;6.57;;;1.30;;
40967;SDS011;57377;45.130;6.038;2023-03-23T14:00:33;3.28;;;1.67;;
40967;SDS011;57377;45.130;6.038;2023-03-23T14:05:41;4.97;;;1.63;;
40967;SDS011;57377;45.130;6.038;2023-03-23T14:13:02;3.88;;;1.17;;
40967;SDS011;57377;45.130;6.038;2023-03-23T14:15:30;5.70;;;1.65;;
40967;SDS011;57377;45.130;6.038;2023-03-23T14:18:03;2.55;;;1.27;;
40967;SDS011;57377;45.130;6.038;2023-03-23T14:20:30;10.95;;;1.33;;
40967;SDS011;57377;45.130;6.038;2023-03-23T14:22:58;2.95;;;0.98;;
40967;SDS011;57377;45.130;6.038;2023-03-23T14:25:28;6.05;;;1.17;;
40967;SDS011;57377;45.130;6.038;2023-03-23T14:27:58;3.78;;;1.17;;
40967;SDS011;57377;45.130;6.038;2023-03-23T14:30:25;6.75;;;1.00;;
40967;SDS011;57377;45.130;6.038;2023-03-23T14:33:02;3.88;;;1.17;;
40967;SDS011;57377;45.130;6.038;2023-03-23T14:35:31;2.28;;;1.10;;
40967;SDS011;57377;45.130;6.038;2023-03-23T14:37:58;5.43;;;1.20;;
40967;SDS011;57377;45.130;6.038;2023-03-23T14:40:26;1.65;;;1.15;;
40967;SDS011;57377;45.130;6.038;2023-03-23T14:42:52;3.33;;;1.25;;
40967;SDS011;57377;45.130;6.038;2023-03-23T14:45:20;3.10;;;1.38;;
40967;SDS011;57377;45.130;6.038;2023-03-23T14:48:05;2.53;;;1.30;;
40967;SDS011;57377;45.130;6.038;2023-03-23T14:50:39;4.93;;;1.48;;
40967;SDS011;57377;45.130;6.038;2023-03-23T14:53:11;5.15;;;1.40;;
40967;SDS011;57377;45.130;6.038;2023-03-23T14:55:43;8.57;;;1.35;;
40967;SDS011;57377;45.130;6.038;2023-03-23T14:58:13;8.07;;;1.42;;
40967;SDS011;57377;45.130;6.038;2023-03-23T15:03:15;3.55;;;1.60;;
40967;SDS011;57377;45.130;6.038;2023-03-23T15:05:50;12.00;;;1.83;;
40967;SDS011;57377;45.130;6.038;2023-03-23T15:08:26;17.77;;;2.15;;
40967;SDS011;57377;45.130;6.038;2023-03-23T15:13:30;10.13;;;1.70;;
40967;SDS011;57377;45.130;6.038;2023-03-23T15:16:07;8.65;;;1.73;;
40967;SDS011;57377;45.130;6.038;2023-03-23T15:18:39;12.88;;;2.22;;
40967;SDS011;57377;45.130;6.038;2023-03-23T15:21:19;11.23;;;2.53;;
40967;SDS011;57377;45.130;6.038;2023-03-23T15:23:53;5.40;;;2.08;;
40967;SDS011;57377;45.130;6.038;2023-03-23T15:26:27;13.30;;;1.88;;
40967;SDS011;57377;45.130;6.038;2023-03-23T15:31:32;3.33;;;1.67;;
40967;SDS011;57377;45.130;6.038;2023-03-23T15:33:59;7.00;;;2.22;;
40967;SDS011;57377;45.130;6.038;2023-03-23T15:36:30;16.38;;;1.60;;
40967;SDS011;57377;45.130;6.038;2023-03-23T15:38:57;10.77;;;2.00;;
40967;SDS011;57377;45.130;6.038;2023-03-23T15:41:24;4.97;;;1.70;;
40967;SDS011;57377;45.130;6.038;2023-03-23T15:43:53;4.65;;;1.58;;
40967;SDS011;57377;45.130;6.038;2023-03-23T15:46:23;9.40;;;2.00;;
40967;SDS011;57377;45.130;6.038;2023-03-23T15:51:38;3.33;;;1.38;;
40967;SDS011;57377;45.130;6.038;2023-03-23T15:54:05;9.82;;;2.60;;
40967;SDS011;57377;45.130;6.038;2023-03-23T15:56:37;4.00;;;1.75;;
40967;SDS011;57377;45.130;6.038;2023-03-23T15:59:02;2.95;;;1.13;;
40967;SDS011;57377;45.130;6.038;2023-03-23T16:01:28;17.08;;;2.10;;
40967;SDS011;57377;45.130;6.038;2023-03-23T16:19:05;6.00;;;2.33;;
40967;SDS011;57377;45.130;6.038;2023-03-23T16:22:13;13.25;;;1.80;;
40967;SDS011;57377;45.130;6.038;2023-03-23T16:25:18;7.32;;;2.53;;
40967;SDS011;57377;45.130;6.038;2023-03-23T16:28:12;4.57;;;2.25;;
40967;SDS011;57377;45.130;6.038;2023-03-23T16:33:54;5.78;;;1.20;;
40967;SDS011;57377;45.130;6.038;2023-03-23T16:39:48;8.50;;;1.45;;
40967;SDS011;57377;45.130;6.038;2023-03-23T16:42:14;3.17;;;1.23;;
40967;SDS011;57377;45.130;6.038;2023-03-23T16:44:40;6.18;;;1.33;;
40967;SDS011;57377;45.130;6.038;2023-03-23T16:47:05;2.47;;;1.13;;
40967;SDS011;57377;45.130;6.038;2023-03-23T16:49:30;3.83;;;1.30;;
40967;SDS011;57377;45.130;6.038;2023-03-23T16:51:56;2.97;;;1.13;;
40967;SDS011;57377;45.130;6.038;2023-03-23T16:54:22;1.95;;;1.35;;
40967;SDS011;57377;45.130;6.038;2023-03-23T16:56:47;2.00;;;1.40;;
40967;SDS011;57377;45.130;6.038;2023-03-23T16:59:13;4.18;;;2.17;;
40967;SDS011;57377;45.130;6.038;2023-03-23T17:01:39;6.07;;;1.80;;
40967;SDS011;57377;45.130;6.038;2023-03-23T17:04:05;6.97;;;2.05;;
40967;SDS011;57377;45.130;6.038;2023-03-23T17:06:31;3.85;;;1.20;;
40967;SDS011;57377;45.130;6.038;2023-03-23T17:08:57;5.53;;;1.20;;
40967;SDS011;57377;45.130;6.038;2023-03-23T17:11:22;2.13;;;1.27;;
40967;SDS011;57377;45.130;6.038;2023-03-23T17:13:48;6.72;;;1.40;;
40967;SDS011;57377;45.130;6.038;2023-03-23T17:16:13;2.42;;;1.20;;
40967;SDS011;57377;45.130;6.038;2023-03-23T17:18:39;2.70;;;1.20;;
40967;SDS011;57377;45.130;6.038;2023-03-23T17:21:04;1.67;;;1.05;;
40967;SDS011;57377;45.130;6.038;2023-03-23T17:23:30;7.57;;;1.25;;
40967;SDS011;57377;45.130;6.038;2023-03-23T17:25:56;2.45;;;1.17;;
40967;SDS011;57377;45.130;6.038;2023-03-23T17:28:21;5.63;;;1.77;;
40967;SDS011;57377;45.130;6.038;2023-03-23T17:30:47;2.22;;;1.00;;
40967;SDS011;57377;45.130;6.038;2023-03-23T17:33:15;1.63;;;1.20;;
40967;SDS011;57377;45.130;6.038;2023-03-23T17:38:29;2.08;;;1.20;;
40967;SDS011;57377;45.130;6.038;2023-03-23T17:41:02;3.80;;;1.23;;